sensor_id;sensor_type;location;lat;lon;timestamp;P1;durP1;ratioP1;P2;durP2;ratioP2
40637;SDS011;26336;44.696;10.622;2024-01-30T00:00:25;61.33;;;36.90;;
40637;SDS011;26336;44.696;10.622;2024-01-30T00:03:29;57.43;;;35.20;;
40637;SDS011;26336;44.696;10.622;2024-01-30T00:06:33;54.07;;;34.57;;
40637;SDS011;26336;44.696;10.622;2024-01-30T00:09:37;56.90;;;34.53;;
40637;SDS011;26336;44.696;10.622;2024-01-30T00:12:42;53.43;;;33.03;;
40637;SDS011;26336;44.696;10.622;2024-01-30T00:15:47;47.63;;;32.10;;
40637;SDS011;26336;44.696;10.622;2024-01-30T00:18:51;46.27;;;30.60;;
40637;SDS011;26336;44.696;10.622;2024-01-30T00:21:56;45.10;;;30.57;;
40637;SDS011;26336;44.696;10.622;2024-01-30T00:25:00;46.17;;;30.47;;
40637;SDS011;26336;44.696;10.622;2024-01-30T00:28:04;47.87;;;33.47;;
40637;SDS011;26336;44.696;10.622;2024-01-30T00:31:08;48.10;;;32.00;;
40637;SDS011;26336;44.696;10.622;2024-01-30T00:34:15;48.20;;;32.87;;
40637;SDS011;26336;44.696;10.622;2024-01-30T00:37:19;50.50;;;33.70;;
40637;SDS011;26336;44.696;10.622;2024-01-30T00:40:23;52.10;;;35.20;;
40637;SDS011;26336;44.696;10.622;2024-01-30T00:43:26;52.83;;;34.50;;
40637;SDS011;26336;44.696;10.622;2024-01-30T00:46:30;47.57;;;31.87;;
40637;SDS011;26336;44.696;10.622;2024-01-30T00:49:35;54.40;;;33.80;;
40637;SDS011;26336;44.696;10.622;2024-01-30T00:52:39;51.37;;;33.10;;
40637;SDS011;26336;44.696;10.622;2024-01-30T00:55:44;50.43;;;32.13;;
40637;SDS011;26336;44.696;10.622;2024-01-30T00:58:48;55.47;;;33.80;;
40637;SDS011;26336;44.696;10.622;2024-01-30T01:01:53;49.97;;;32.73;;
40637;SDS011;26336;44.696;10.622;2024-01-30T01:04:57;46.70;;;31.77;;
40637;SDS011;26336;44.696;10.622;2024-01-30T01:08:01;53.67;;;34.87;;
40637;SDS011;26336;44.696;10.622;2024-01-30T01:11:04;52.13;;;33.00;;
40637;SDS011;26336;44.696;10.622;2024-01-30T01:14:08;48.33;;;32.80;;
40637;SDS011;26336;44.696;10.622;2024-01-30T01:17:12;50.70;;;32.60;;
40637;SDS011;26336;44.696;10.622;2024-01-30T01:20:17;97.77;;;51.70;;
40637;SDS011;26336;44.696;10.622;2024-01-30T01:23:20;68.03;;;40.10;;
40637;SDS011;26336;44.696;10.622;2024-01-30T01:26:24;59.43;;;36.27;;
40637;SDS011;26336;44.696;10.622;2024-01-30T01:29:28;56.67;;;35.53;;
40637;SDS011;26336;44.696;10.622;2024-01-30T01:32:32;54.70;;;34.47;;
40637;SDS011;26336;44.696;10.622;2024-01-30T01:35:37;52.33;;;33.50;;
40637;SDS011;26336;44.696;10.622;2024-01-30T01:38:42;54.70;;;34.03;;
40637;SDS011;26336;44.696;10.622;2024-01-30T01:41:46;48.20;;;32.50;;
40637;SDS011;26336;44.696;10.622;2024-01-30T01:44:50;55.43;;;33.20;;
40637;SDS011;26336;44.696;10.622;2024-01-30T01:47:54;46.83;;;31.57;;
40637;SDS011;26336;44.696;10.622;2024-01-30T01:50:58;50.17;;;31.53;;
40637;SDS011;26336;44.696;10.622;2024-01-30T01:54:04;50.57;;;31.93;;
40637;SDS011;26336;44.696;10.622;2024-01-30T01:57:08;52.27;;;31.97;;
40637;SDS011;26336;44.696;10.622;2024-01-30T02:00:12;46.57;;;31.27;;
40637;SDS011;26336;44.696;10.622;2024-01-30T02:03:17;50.73;;;31.33;;
40637;SDS011;26336;44.696;10.622;2024-01-30T02:06:24;49.50;;;31.27;;
40637;SDS011;26336;44.696;10.622;2024-01-30T02:09:29;51.27;;;32.87;;
40637;SDS011;26336;44.696;10.622;2024-01-30T02:12:33;47.07;;;30.60;;
40637;SDS011;26336;44.696;10.622;2024-01-30T02:15:36;43.50;;;28.87;;
40637;SDS011;26336;44.696;10.622;2024-01-30T02:18:41;44.53;;;29.87;;
40637;SDS011;26336;44.696;10.622;2024-01-30T02:21:56;43.87;;;29.00;;
40637;SDS011;26336;44.696;10.622;2024-01-30T02:25:00;42.17;;;28.50;;
40637;SDS011;26336;44.696;10.622;2024-01-30T02:28:04;43.40;;;28.93;;
40637;SDS011;26336;44.696;10.622;2024-01-30T02:31:09;42.77;;;29.67;;
40637;SDS011;26336;44.696;10.622;2024-01-30T02:34:13;43.30;;;28.63;;
40637;SDS011;26336;44.696;10.622;2024-01-30T02:37:17;44.13;;;28.83;;
40637;SDS011;26336;44.696;10.622;2024-01-30T02:40:21;46.33;;;28.77;;
40637;SDS011;26336;44.696;10.622;2024-01-30T02:43:25;45.63;;;29.30;;
40637;SDS011;26336;44.696;10.622;2024-01-30T02:46:29;40.20;;;27.57;;
40637;SDS011;26336;44.696;10.622;2024-01-30T02:49:33;39.50;;;27.33;;
40637;SDS011;26336;44.696;10.622;2024-01-30T02:52:37;40.07;;;25.53;;
40637;SDS011;26336;44.696;10.622;2024-01-30T02:55:41;37.90;;;25.83;;
40637;SDS011;26336;44.696;10.622;2024-01-30T02:58:45;38.43;;;25.33;;
40637;SDS011;26336;44.696;10.622;2024-01-30T03:01:49;33.77;;;23.17;;
40637;SDS011;26336;44.696;10.622;2024-01-30T03:04:53;36.03;;;23.90;;
40637;SDS011;26336;44.696;10.622;2024-01-30T03:07:57;34.00;;;24.37;;
40637;SDS011;26336;44.696;10.622;2024-01-30T03:11:01;34.43;;;23.80;;
40637;SDS011;26336;44.696;10.622;2024-01-30T03:14:05;36.47;;;24.93;;
40637;SDS011;26336;44.696;10.622;2024-01-30T03:17:09;40.00;;;26.27;;
40637;SDS011;26336;44.696;10.622;2024-01-30T03:20:13;35.53;;;25.80;;
40637;SDS011;26336;44.696;10.622;2024-01-30T03:23:17;35.80;;;25.00;;
40637;SDS011;26336;44.696;10.622;2024-01-30T03:26:21;41.40;;;27.43;;
40637;SDS011;26336;44.696;10.622;2024-01-30T03:29:25;42.20;;;28.27;;
40637;SDS011;26336;44.696;10.622;2024-01-30T03:32:29;44.30;;;29.10;;
40637;SDS011;26336;44.696;10.622;2024-01-30T03:35:33;43.13;;;30.20;;
40637;SDS011;26336;44.696;10.622;2024-01-30T03:38:37;41.93;;;29.13;;
40637;SDS011;26336;44.696;10.622;2024-01-30T03:41:44;41.07;;;28.10;;
40637;SDS011;26336;44.696;10.622;2024-01-30T03:44:48;44.47;;;30.80;;
40637;SDS011;26336;44.696;10.622;2024-01-30T03:47:55;44.37;;;30.00;;
40637;SDS011;26336;44.696;10.622;2024-01-30T03:50:59;44.70;;;30.87;;
40637;SDS011;26336;44.696;10.622;2024-01-30T03:54:03;48.80;;;33.63;;
40637;SDS011;26336;44.696;10.622;2024-01-30T03:57:07;49.53;;;31.47;;
40637;SDS011;26336;44.696;10.622;2024-01-30T04:00:11;48.13;;;31.80;;
40637;SDS011;26336;44.696;10.622;2024-01-30T04:03:15;48.73;;;31.73;;
40637;SDS011;26336;44.696;10.622;2024-01-30T04:06:19;50.20;;;30.83;;
40637;SDS011;26336;44.696;10.622;2024-01-30T04:09:23;54.07;;;32.63;;
40637;SDS011;26336;44.696;10.622;2024-01-30T04:12:29;53.97;;;33.07;;
40637;SDS011;26336;44.696;10.622;2024-01-30T04:15:34;42.63;;;28.77;;
40637;SDS011;26336;44.696;10.622;2024-01-30T04:18:38;41.13;;;28.70;;
40637;SDS011;26336;44.696;10.622;2024-01-30T04:21:42;43.23;;;29.53;;
40637;SDS011;26336;44.696;10.622;2024-01-30T04:24:46;38.23;;;28.07;;
40637;SDS011;26336;44.696;10.622;2024-01-30T04:27:50;38.37;;;26.83;;
40637;SDS011;26336;44.696;10.622;2024-01-30T04:30:54;38.17;;;27.73;;
40637;SDS011;26336;44.696;10.622;2024-01-30T04:33:58;39.03;;;27.17;;
40637;SDS011;26336;44.696;10.622;2024-01-30T04:37:02;33.33;;;24.70;;
40637;SDS011;26336;44.696;10.622;2024-01-30T04:40:06;34.33;;;24.30;;
40637;SDS011;26336;44.696;10.622;2024-01-30T04:43:11;34.73;;;25.40;;
40637;SDS011;26336;44.696;10.622;2024-01-30T04:46:15;31.67;;;24.33;;
40637;SDS011;26336;44.696;10.622;2024-01-30T04:49:19;34.47;;;26.40;;
40637;SDS011;26336;44.696;10.622;2024-01-30T04:52:23;36.90;;;27.40;;
40637;SDS011;26336;44.696;10.622;2024-01-30T04:55:27;38.30;;;27.27;;
40637;SDS011;26336;44.696;10.622;2024-01-30T04:58:31;36.30;;;26.70;;
40637;SDS011;26336;44.696;10.622;2024-01-30T05:01:35;38.30;;;27.40;;
40637;SDS011;26336;44.696;10.622;2024-01-30T05:04:40;40.93;;;27.50;;
40637;SDS011;26336;44.696;10.622;2024-01-30T05:07:45;40.53;;;28.87;;
40637;SDS011;26336;44.696;10.622;2024-01-30T05:10:48;41.17;;;28.27;;
40637;SDS011;26336;44.696;10.622;2024-01-30T05:13:52;43.27;;;29.13;;
40637;SDS011;26336;44.696;10.622;2024-01-30T05:16:56;41.60;;;28.80;;
40637;SDS011;26336;44.696;10.622;2024-01-30T05:20:00;46.13;;;31.33;;
40637;SDS011;26336;44.696;10.622;2024-01-30T05:23:04;45.83;;;30.87;;
40637;SDS011;26336;44.696;10.622;2024-01-30T05:26:08;39.60;;;28.17;;
40637;SDS011;26336;44.696;10.622;2024-01-30T05:29:12;46.43;;;29.77;;
40637;SDS011;26336;44.696;10.622;2024-01-30T05:32:16;42.60;;;28.50;;
40637;SDS011;26336;44.696;10.622;2024-01-30T05:35:20;45.73;;;29.93;;
40637;SDS011;26336;44.696;10.622;2024-01-30T05:38:24;45.57;;;30.00;;
40637;SDS011;26336;44.696;10.622;2024-01-30T05:41:28;45.47;;;29.63;;
40637;SDS011;26336;44.696;10.622;2024-01-30T05:44:32;40.80;;;28.40;;
40637;SDS011;26336;44.696;10.622;2024-01-30T05:47:36;45.30;;;30.13;;
40637;SDS011;26336;44.696;10.622;2024-01-30T05:50:40;43.40;;;29.30;;
40637;SDS011;26336;44.696;10.622;2024-01-30T05:53:44;40.93;;;28.70;;
40637;SDS011;26336;44.696;10.622;2024-01-30T05:56:48;40.37;;;28.33;;
40637;SDS011;26336;44.696;10.622;2024-01-30T05:59:52;41.97;;;28.57;;
40637;SDS011;26336;44.696;10.622;2024-01-30T06:02:56;47.00;;;30.30;;
40637;SDS011;26336;44.696;10.622;2024-01-30T06:06:00;43.30;;;28.80;;
40637;SDS011;26336;44.696;10.622;2024-01-30T06:09:04;42.47;;;29.37;;
40637;SDS011;26336;44.696;10.622;2024-01-30T06:12:08;43.87;;;29.37;;
40637;SDS011;26336;44.696;10.622;2024-01-30T06:15:15;45.40;;;30.57;;
40637;SDS011;26336;44.696;10.622;2024-01-30T06:18:19;44.50;;;29.23;;
40637;SDS011;26336;44.696;10.622;2024-01-30T06:21:23;40.30;;;27.87;;
40637;SDS011;26336;44.696;10.622;2024-01-30T06:24:27;42.83;;;28.73;;
40637;SDS011;26336;44.696;10.622;2024-01-30T06:27:31;43.07;;;28.30;;
40637;SDS011;26336;44.696;10.622;2024-01-30T06:30:35;39.30;;;28.60;;
40637;SDS011;26336;44.696;10.622;2024-01-30T06:33:39;40.73;;;28.13;;
40637;SDS011;26336;44.696;10.622;2024-01-30T06:36:45;38.80;;;28.30;;
40637;SDS011;26336;44.696;10.622;2024-01-30T06:39:49;39.77;;;28.80;;
40637;SDS011;26336;44.696;10.622;2024-01-30T06:42:53;41.97;;;29.37;;
40637;SDS011;26336;44.696;10.622;2024-01-30T06:45:57;42.27;;;28.83;;
40637;SDS011;26336;44.696;10.622;2024-01-30T06:49:01;41.30;;;27.70;;
40637;SDS011;26336;44.696;10.622;2024-01-30T06:52:05;45.10;;;29.17;;
40637;SDS011;26336;44.696;10.622;2024-01-30T06:55:10;49.20;;;31.97;;
40637;SDS011;26336;44.696;10.622;2024-01-30T06:58:14;44.47;;;31.50;;
40637;SDS011;26336;44.696;10.622;2024-01-30T07:01:17;41.47;;;29.30;;
40637;SDS011;26336;44.696;10.622;2024-01-30T07:04:21;42.57;;;27.93;;
40637;SDS011;26336;44.696;10.622;2024-01-30T07:07:25;42.63;;;30.23;;
40637;SDS011;26336;44.696;10.622;2024-01-30T07:10:30;41.07;;;28.20;;
40637;SDS011;26336;44.696;10.622;2024-01-30T07:13:35;44.67;;;29.17;;
40637;SDS011;26336;44.696;10.622;2024-01-30T07:16:39;42.70;;;29.83;;
40637;SDS011;26336;44.696;10.622;2024-01-30T07:19:43;42.73;;;30.10;;
40637;SDS011;26336;44.696;10.622;2024-01-30T07:22:47;41.63;;;29.60;;
40637;SDS011;26336;44.696;10.622;2024-01-30T07:25:51;44.80;;;31.83;;
40637;SDS011;26336;44.696;10.622;2024-01-30T07:28:57;45.47;;;29.03;;
40637;SDS011;26336;44.696;10.622;2024-01-30T07:32:01;44.23;;;29.67;;
40637;SDS011;26336;44.696;10.622;2024-01-30T07:35:05;39.77;;;28.47;;
40637;SDS011;26336;44.696;10.622;2024-01-30T07:38:09;40.70;;;27.77;;
40637;SDS011;26336;44.696;10.622;2024-01-30T07:41:13;39.83;;;28.33;;
40637;SDS011;26336;44.696;10.622;2024-01-30T07:44:17;38.27;;;27.57;;
40637;SDS011;26336;44.696;10.622;2024-01-30T07:47:21;37.13;;;25.50;;
40637;SDS011;26336;44.696;10.622;2024-01-30T07:50:25;42.50;;;27.57;;
40637;SDS011;26336;44.696;10.622;2024-01-30T07:53:29;39.50;;;26.53;;
40637;SDS011;26336;44.696;10.622;2024-01-30T07:56:33;39.47;;;28.03;;
40637;SDS011;26336;44.696;10.622;2024-01-30T07:59:37;38.77;;;27.17;;
40637;SDS011;26336;44.696;10.622;2024-01-30T08:02:41;40.53;;;26.63;;
40637;SDS011;26336;44.696;10.622;2024-01-30T08:05:46;35.20;;;24.73;;
40637;SDS011;26336;44.696;10.622;2024-01-30T08:08:49;37.70;;;26.37;;
40637;SDS011;26336;44.696;10.622;2024-01-30T08:11:56;33.93;;;24.23;;
40637;SDS011;26336;44.696;10.622;2024-01-30T08:15:00;38.13;;;25.57;;
40637;SDS011;26336;44.696;10.622;2024-01-30T08:18:04;35.30;;;25.27;;
40637;SDS011;26336;44.696;10.622;2024-01-30T08:21:10;35.73;;;24.57;;
40637;SDS011;26336;44.696;10.622;2024-01-30T08:24:14;31.47;;;22.90;;
40637;SDS011;26336;44.696;10.622;2024-01-30T08:27:18;31.53;;;23.83;;
40637;SDS011;26336;44.696;10.622;2024-01-30T08:30:21;31.97;;;22.77;;
40637;SDS011;26336;44.696;10.622;2024-01-30T08:33:25;32.20;;;23.60;;
40637;SDS011;26336;44.696;10.622;2024-01-30T08:36:29;30.27;;;22.07;;
40637;SDS011;26336;44.696;10.622;2024-01-30T08:39:33;29.57;;;22.47;;
40637;SDS011;26336;44.696;10.622;2024-01-30T08:42:37;30.30;;;23.20;;
40637;SDS011;26336;44.696;10.622;2024-01-30T08:45:41;28.90;;;22.17;;
40637;SDS011;26336;44.696;10.622;2024-01-30T08:48:46;31.47;;;22.33;;
40637;SDS011;26336;44.696;10.622;2024-01-30T08:51:51;31.67;;;23.00;;
40637;SDS011;26336;44.696;10.622;2024-01-30T08:54:55;31.93;;;23.30;;
40637;SDS011;26336;44.696;10.622;2024-01-30T08:57:59;30.40;;;21.43;;
40637;SDS011;26336;44.696;10.622;2024-01-30T09:01:03;30.13;;;22.30;;
40637;SDS011;26336;44.696;10.622;2024-01-30T09:04:08;28.10;;;22.70;;
40637;SDS011;26336;44.696;10.622;2024-01-30T09:07:12;27.97;;;22.13;;
40637;SDS011;26336;44.696;10.622;2024-01-30T09:10:16;32.67;;;24.30;;
40637;SDS011;26336;44.696;10.622;2024-01-30T09:13:21;33.37;;;23.37;;
40637;SDS011;26336;44.696;10.622;2024-01-30T09:16:25;29.10;;;21.53;;
40637;SDS011;26336;44.696;10.622;2024-01-30T09:19:29;32.23;;;21.53;;
40637;SDS011;26336;44.696;10.622;2024-01-30T09:22:34;28.23;;;21.43;;
40637;SDS011;26336;44.696;10.622;2024-01-30T09:25:38;28.67;;;21.67;;
40637;SDS011;26336;44.696;10.622;2024-01-30T09:28:41;29.67;;;21.10;;
40637;SDS011;26336;44.696;10.622;2024-01-30T09:31:46;30.07;;;21.37;;
40637;SDS011;26336;44.696;10.622;2024-01-30T09:34:50;27.47;;;20.33;;
40637;SDS011;26336;44.696;10.622;2024-01-30T09:37:53;33.83;;;20.53;;
40637;SDS011;26336;44.696;10.622;2024-01-30T09:40:57;33.20;;;22.17;;
40637;SDS011;26336;44.696;10.622;2024-01-30T09:44:08;28.17;;;21.23;;
40637;SDS011;26336;44.696;10.622;2024-01-30T09:47:14;30.90;;;21.27;;
40637;SDS011;26336;44.696;10.622;2024-01-30T09:50:20;29.30;;;20.43;;
40637;SDS011;26336;44.696;10.622;2024-01-30T09:53:24;31.87;;;22.53;;
40637;SDS011;26336;44.696;10.622;2024-01-30T09:56:29;30.53;;;22.43;;
40637;SDS011;26336;44.696;10.622;2024-01-30T09:59:33;26.67;;;21.37;;
40637;SDS011;26336;44.696;10.622;2024-01-30T10:02:40;32.40;;;23.33;;
40637;SDS011;26336;44.696;10.622;2024-01-30T10:05:52;33.73;;;24.30;;
40637;SDS011;26336;44.696;10.622;2024-01-30T10:08:56;31.23;;;24.50;;
40637;SDS011;26336;44.696;10.622;2024-01-30T10:12:01;35.33;;;25.70;;
40637;SDS011;26336;44.696;10.622;2024-01-30T10:15:07;33.40;;;24.10;;
40637;SDS011;26336;44.696;10.622;2024-01-30T10:18:11;35.73;;;25.10;;
40637;SDS011;26336;44.696;10.622;2024-01-30T10:21:16;35.40;;;24.73;;
40637;SDS011;26336;44.696;10.622;2024-01-30T10:24:23;37.10;;;25.87;;
40637;SDS011;26336;44.696;10.622;2024-01-30T10:27:28;34.60;;;25.23;;
40637;SDS011;26336;44.696;10.622;2024-01-30T10:30:33;31.43;;;22.87;;
40637;SDS011;26336;44.696;10.622;2024-01-30T10:33:37;34.53;;;23.13;;
40637;SDS011;26336;44.696;10.622;2024-01-30T10:36:41;35.23;;;23.93;;
40637;SDS011;26336;44.696;10.622;2024-01-30T10:39:49;30.97;;;23.10;;
40637;SDS011;26336;44.696;10.622;2024-01-30T10:42:56;32.30;;;21.23;;
40637;SDS011;26336;44.696;10.622;2024-01-30T10:46:15;32.93;;;22.33;;
40637;SDS011;26336;44.696;10.622;2024-01-30T10:49:31;35.03;;;22.37;;
40637;SDS011;26336;44.696;10.622;2024-01-30T10:52:35;31.73;;;21.57;;
40637;SDS011;26336;44.696;10.622;2024-01-30T10:55:40;27.73;;;20.47;;
40637;SDS011;26336;44.696;10.622;2024-01-30T10:58:44;30.80;;;20.63;;
40637;SDS011;26336;44.696;10.622;2024-01-30T11:01:49;30.30;;;21.87;;
40637;SDS011;26336;44.696;10.622;2024-01-30T11:04:57;29.10;;;20.90;;
40637;SDS011;26336;44.696;10.622;2024-01-30T11:08:12;29.50;;;20.87;;
40637;SDS011;26336;44.696;10.622;2024-01-30T11:11:16;31.50;;;21.37;;
40637;SDS011;26336;44.696;10.622;2024-01-30T11:14:25;32.57;;;21.17;;
40637;SDS011;26336;44.696;10.622;2024-01-30T11:17:43;31.23;;;21.63;;
40637;SDS011;26336;44.696;10.622;2024-01-30T11:20:57;32.30;;;22.40;;
40637;SDS011;26336;44.696;10.622;2024-01-30T11:24:04;32.20;;;22.90;;
40637;SDS011;26336;44.696;10.622;2024-01-30T11:27:09;27.83;;;20.53;;
40637;SDS011;26336;44.696;10.622;2024-01-30T11:33:30;35.73;;;25.13;;
40637;SDS011;26336;44.696;10.622;2024-01-30T11:36:35;36.37;;;24.10;;
40637;SDS011;26336;44.696;10.622;2024-01-30T11:39:40;38.40;;;26.27;;
40637;SDS011;26336;44.696;10.622;2024-01-30T11:42:46;38.10;;;27.20;;
40637;SDS011;26336;44.696;10.622;2024-01-30T11:45:52;38.57;;;26.40;;
40637;SDS011;26336;44.696;10.622;2024-01-30T11:48:56;39.93;;;25.63;;
40637;SDS011;26336;44.696;10.622;2024-01-30T11:52:00;40.20;;;25.60;;
40637;SDS011;26336;44.696;10.622;2024-01-30T11:55:04;35.63;;;25.73;;
40637;SDS011;26336;44.696;10.622;2024-01-30T11:58:08;39.10;;;25.07;;
40637;SDS011;26336;44.696;10.622;2024-01-30T12:01:12;41.80;;;26.53;;
40637;SDS011;26336;44.696;10.622;2024-01-30T12:04:16;39.63;;;26.07;;
40637;SDS011;26336;44.696;10.622;2024-01-30T12:07:20;36.67;;;25.63;;
40637;SDS011;26336;44.696;10.622;2024-01-30T12:10:24;37.47;;;25.87;;
40637;SDS011;26336;44.696;10.622;2024-01-30T12:13:28;41.33;;;26.53;;
40637;SDS011;26336;44.696;10.622;2024-01-30T12:16:33;38.30;;;25.97;;
40637;SDS011;26336;44.696;10.622;2024-01-30T12:19:37;37.50;;;26.00;;
40637;SDS011;26336;44.696;10.622;2024-01-30T12:22:47;39.40;;;25.73;;
40637;SDS011;26336;44.696;10.622;2024-01-30T12:25:53;39.10;;;27.97;;
40637;SDS011;26336;44.696;10.622;2024-01-30T12:28:57;45.87;;;28.97;;
40637;SDS011;26336;44.696;10.622;2024-01-30T12:32:05;47.43;;;29.53;;
40637;SDS011;26336;44.696;10.622;2024-01-30T12:35:12;43.73;;;29.40;;
40637;SDS011;26336;44.696;10.622;2024-01-30T12:38:17;44.37;;;29.13;;
40637;SDS011;26336;44.696;10.622;2024-01-30T12:41:20;46.80;;;30.23;;
40637;SDS011;26336;44.696;10.622;2024-01-30T12:44:24;46.17;;;29.53;;
40637;SDS011;26336;44.696;10.622;2024-01-30T12:47:29;42.37;;;29.47;;
40637;SDS011;26336;44.696;10.622;2024-01-30T12:50:33;48.37;;;30.70;;
40637;SDS011;26336;44.696;10.622;2024-01-30T12:53:37;41.83;;;30.20;;
40637;SDS011;26336;44.696;10.622;2024-01-30T12:56:41;47.00;;;30.40;;
40637;SDS011;26336;44.696;10.622;2024-01-30T12:59:45;46.00;;;30.90;;
40637;SDS011;26336;44.696;10.622;2024-01-30T13:02:49;52.37;;;33.27;;
40637;SDS011;26336;44.696;10.622;2024-01-30T13:05:53;46.40;;;29.80;;
40637;SDS011;26336;44.696;10.622;2024-01-30T13:08:58;53.53;;;36.27;;
40637;SDS011;26336;44.696;10.622;2024-01-30T13:12:02;52.50;;;34.53;;
40637;SDS011;26336;44.696;10.622;2024-01-30T13:15:06;47.83;;;33.40;;
40637;SDS011;26336;44.696;10.622;2024-01-30T13:18:11;52.53;;;34.33;;
40637;SDS011;26336;44.696;10.622;2024-01-30T13:21:15;49.70;;;32.87;;
40637;SDS011;26336;44.696;10.622;2024-01-30T13:24:19;55.43;;;36.00;;
40637;SDS011;26336;44.696;10.622;2024-01-30T13:27:24;54.97;;;36.83;;
40637;SDS011;26336;44.696;10.622;2024-01-30T13:30:28;54.23;;;35.40;;
40637;SDS011;26336;44.696;10.622;2024-01-30T13:33:32;54.50;;;36.43;;
40637;SDS011;26336;44.696;10.622;2024-01-30T13:36:36;48.93;;;34.50;;
40637;SDS011;26336;44.696;10.622;2024-01-30T13:39:43;51.07;;;35.23;;
40637;SDS011;26336;44.696;10.622;2024-01-30T13:42:47;55.67;;;37.57;;
40637;SDS011;26336;44.696;10.622;2024-01-30T13:45:51;54.53;;;36.73;;
40637;SDS011;26336;44.696;10.622;2024-01-30T13:48:56;54.67;;;37.13;;
40637;SDS011;26336;44.696;10.622;2024-01-30T13:51:59;54.80;;;36.47;;
40637;SDS011;26336;44.696;10.622;2024-01-30T13:55:04;57.50;;;36.97;;
40637;SDS011;26336;44.696;10.622;2024-01-30T13:58:08;55.23;;;35.20;;
40637;SDS011;26336;44.696;10.622;2024-01-30T14:01:12;49.67;;;32.63;;
40637;SDS011;26336;44.696;10.622;2024-01-30T14:04:17;50.83;;;34.70;;
40637;SDS011;26336;44.696;10.622;2024-01-30T14:07:21;51.57;;;35.87;;
40637;SDS011;26336;44.696;10.622;2024-01-30T14:10:25;51.13;;;34.87;;
40637;SDS011;26336;44.696;10.622;2024-01-30T14:13:29;46.83;;;33.37;;
40637;SDS011;26336;44.696;10.622;2024-01-30T14:16:36;47.40;;;34.40;;
40637;SDS011;26336;44.696;10.622;2024-01-30T14:19:40;50.00;;;33.73;;
40637;SDS011;26336;44.696;10.622;2024-01-30T14:22:45;45.43;;;30.87;;
40637;SDS011;26336;44.696;10.622;2024-01-30T14:25:49;44.47;;;32.43;;
40637;SDS011;26336;44.696;10.622;2024-01-30T14:28:55;50.40;;;33.60;;
40637;SDS011;26336;44.696;10.622;2024-01-30T14:31:59;44.60;;;30.90;;
40637;SDS011;26336;44.696;10.622;2024-01-30T14:35:03;46.13;;;32.50;;
40637;SDS011;26336;44.696;10.622;2024-01-30T14:38:08;50.80;;;32.90;;
40637;SDS011;26336;44.696;10.622;2024-01-30T14:41:13;53.90;;;35.80;;
40637;SDS011;26336;44.696;10.622;2024-01-30T14:44:16;48.27;;;32.83;;
40637;SDS011;26336;44.696;10.622;2024-01-30T14:47:20;51.10;;;33.70;;
40637;SDS011;26336;44.696;10.622;2024-01-30T14:50:24;49.60;;;33.80;;
40637;SDS011;26336;44.696;10.622;2024-01-30T14:53:30;48.47;;;32.27;;
40637;SDS011;26336;44.696;10.622;2024-01-30T14:56:34;47.63;;;32.67;;
40637;SDS011;26336;44.696;10.622;2024-01-30T14:59:38;45.63;;;32.33;;
40637;SDS011;26336;44.696;10.622;2024-01-30T15:02:42;47.73;;;33.27;;
40637;SDS011;26336;44.696;10.622;2024-01-30T15:05:46;50.40;;;34.50;;
40637;SDS011;26336;44.696;10.622;2024-01-30T15:08:51;55.23;;;36.80;;
40637;SDS011;26336;44.696;10.622;2024-01-30T15:11:56;52.20;;;35.57;;
40637;SDS011;26336;44.696;10.622;2024-01-30T15:15:00;53.00;;;34.73;;
40637;SDS011;26336;44.696;10.622;2024-01-30T15:18:04;54.77;;;36.17;;
40637;SDS011;26336;44.696;10.622;2024-01-30T15:21:08;51.20;;;35.23;;
40637;SDS011;26336;44.696;10.622;2024-01-30T15:24:12;51.87;;;35.80;;
40637;SDS011;26336;44.696;10.622;2024-01-30T15:27:18;54.70;;;35.63;;
40637;SDS011;26336;44.696;10.622;2024-01-30T15:30:23;53.37;;;36.73;;
40637;SDS011;26336;44.696;10.622;2024-01-30T15:33:30;55.70;;;37.13;;
40637;SDS011;26336;44.696;10.622;2024-01-30T15:36:34;56.03;;;37.23;;
40637;SDS011;26336;44.696;10.622;2024-01-30T15:39:38;53.13;;;34.97;;
40637;SDS011;26336;44.696;10.622;2024-01-30T15:42:42;54.13;;;37.30;;
40637;SDS011;26336;44.696;10.622;2024-01-30T15:45:46;58.27;;;35.57;;
40637;SDS011;26336;44.696;10.622;2024-01-30T15:48:50;58.80;;;37.97;;
40637;SDS011;26336;44.696;10.622;2024-01-30T15:51:54;55.40;;;36.20;;
40637;SDS011;26336;44.696;10.622;2024-01-30T15:54:58;55.00;;;36.60;;
40637;SDS011;26336;44.696;10.622;2024-01-30T15:58:03;53.83;;;37.53;;
40637;SDS011;26336;44.696;10.622;2024-01-30T16:01:07;59.23;;;37.67;;
40637;SDS011;26336;44.696;10.622;2024-01-30T16:04:11;61.43;;;39.00;;
40637;SDS011;26336;44.696;10.622;2024-01-30T16:07:15;57.33;;;37.70;;
40637;SDS011;26336;44.696;10.622;2024-01-30T16:10:19;61.30;;;39.13;;
40637;SDS011;26336;44.696;10.622;2024-01-30T16:13:23;64.60;;;40.60;;
40637;SDS011;26336;44.696;10.622;2024-01-30T16:16:27;65.60;;;42.23;;
40637;SDS011;26336;44.696;10.622;2024-01-30T16:19:32;60.33;;;39.73;;
40637;SDS011;26336;44.696;10.622;2024-01-30T16:22:36;63.77;;;39.33;;
40637;SDS011;26336;44.696;10.622;2024-01-30T16:25:40;58.80;;;40.00;;
40637;SDS011;26336;44.696;10.622;2024-01-30T16:28:44;61.83;;;40.03;;
40637;SDS011;26336;44.696;10.622;2024-01-30T16:31:48;62.83;;;41.23;;
40637;SDS011;26336;44.696;10.622;2024-01-30T16:34:52;66.40;;;43.33;;
40637;SDS011;26336;44.696;10.622;2024-01-30T16:37:55;68.53;;;42.77;;
40637;SDS011;26336;44.696;10.622;2024-01-30T16:41:00;64.27;;;41.77;;
40637;SDS011;26336;44.696;10.622;2024-01-30T16:44:04;61.83;;;41.13;;
40637;SDS011;26336;44.696;10.622;2024-01-30T16:47:08;63.30;;;40.23;;
40637;SDS011;26336;44.696;10.622;2024-01-30T16:50:12;66.13;;;42.30;;
40637;SDS011;26336;44.696;10.622;2024-01-30T16:53:16;66.10;;;40.73;;
40637;SDS011;26336;44.696;10.622;2024-01-30T16:56:20;65.40;;;41.37;;
40637;SDS011;26336;44.696;10.622;2024-01-30T16:59:24;69.23;;;42.20;;
40637;SDS011;26336;44.696;10.622;2024-01-30T17:02:28;67.07;;;41.17;;
40637;SDS011;26336;44.696;10.622;2024-01-30T17:05:33;65.10;;;42.23;;
40637;SDS011;26336;44.696;10.622;2024-01-30T17:08:40;64.07;;;40.27;;
40637;SDS011;26336;44.696;10.622;2024-01-30T17:11:44;64.73;;;41.57;;
40637;SDS011;26336;44.696;10.622;2024-01-30T17:14:48;65.67;;;39.70;;
40637;SDS011;26336;44.696;10.622;2024-01-30T17:17:53;66.57;;;41.10;;
40637;SDS011;26336;44.696;10.622;2024-01-30T17:20:57;70.37;;;42.60;;
40637;SDS011;26336;44.696;10.622;2024-01-30T17:27:30;74.30;;;46.63;;
40637;SDS011;26336;44.696;10.622;2024-01-30T17:30:35;76.10;;;49.07;;
40637;SDS011;26336;44.696;10.622;2024-01-30T17:33:40;69.40;;;47.83;;
40637;SDS011;26336;44.696;10.622;2024-01-30T17:36:45;78.93;;;50.40;;
40637;SDS011;26336;44.696;10.622;2024-01-30T17:39:49;81.33;;;49.63;;
40637;SDS011;26336;44.696;10.622;2024-01-30T17:42:53;80.23;;;49.03;;
40637;SDS011;26336;44.696;10.622;2024-01-30T17:46:00;75.87;;;47.67;;
40637;SDS011;26336;44.696;10.622;2024-01-30T17:49:04;78.60;;;45.07;;